createdAt,value
2022-11-05T11:09:36.176Z,9.60
2022-11-05T11:12:05.428Z,10.83
2022-11-05T11:14:32.358Z,9.03
2022-11-05T11:17:27.083Z,8.73
2022-11-05T11:20:18.792Z,9.90
2022-11-05T11:23:15.033Z,8.80
2022-11-05T11:26:03.893Z,9.33
2022-11-05T11:28:58.583Z,9.60
2022-11-05T11:31:31.434Z,8.93
2022-11-05T11:34:11.580Z,8.47
2022-11-05T11:36:50.796Z,8.40
2022-11-05T11:39:25.033Z,8.27
2022-11-05T11:42:02.276Z,7.43
2022-11-05T11:44:34.394Z,7.53
2022-11-05T11:47:12.285Z,8.00
2022-11-05T11:49:46.007Z,8.60
2022-11-05T11:52:34.704Z,8.97
2022-11-05T11:55:21.819Z,8.00
2022-11-05T11:57:52.876Z,7.67
2022-11-05T12:00:23.478Z,8.57
2022-11-05T12:03:22.488Z,8.27
2022-11-05T12:06:01.845Z,7.70
2022-11-05T12:09:25.466Z,7.13
2022-11-05T12:12:14.098Z,8.30
2022-11-05T12:14:58.643Z,7.80
2022-11-05T12:17:34.347Z,8.30
2022-11-05T12:20:38.026Z,7.53
2022-11-05T12:23:04.621Z,8.13
2022-11-05T12:25:49.155Z,7.97
2022-11-05T12:28:57.731Z,8.60
2022-11-05T12:31:44.015Z,8.60
2022-11-05T12:34:37.857Z,8.03
2022-11-05T12:37:35.339Z,6.87
2022-11-05T12:40:20.294Z,7.40
2022-11-05T12:42:52.859Z,8.10
2022-11-05T12:45:47.131Z,8.27
2022-11-05T12:48:27.630Z,7.07
2022-11-05T12:51:30.421Z,6.80
2022-11-05T12:54:26.856Z,6.63
2022-11-05T12:56:58.180Z,7.17
2022-11-05T12:59:29.004Z,6.53
2022-11-05T13:02:06.492Z,6.60
2022-11-05T13:04:50.291Z,7.07
2022-11-05T13:07:32.221Z,6.77
2022-11-05T13:10:17.957Z,6.40
2022-11-05T13:12:49.297Z,6.83
2022-11-05T13:15:24.196Z,7.40
2022-11-05T13:17:58.470Z,7.20
2022-11-05T13:20:28.887Z,7.30
2022-11-05T13:23:26.266Z,7.20
2022-11-05T13:25:59.388Z,7.33
2022-11-05T13:28:41.236Z,7.10
2022-11-05T13:31:18.732Z,6.83
2022-11-05T13:33:49.612Z,6.90
2022-11-05T13:36:59.567Z,7.50
2022-11-05T13:39:31.813Z,7.23
2022-11-05T13:42:27.233Z,8.27
2022-11-05T13:45:18.408Z,8.47
2022-11-05T13:47:53.638Z,8.23
2022-11-05T13:50:42.007Z,9.40
2022-11-05T13:53:56.524Z,9.10
2022-11-05T13:56:47.745Z,9.00
2022-11-05T13:59:36.205Z,7.93
2022-11-05T14:02:13.971Z,8.47
2022-11-05T14:04:48.550Z,8.70
2022-11-05T14:07:26.563Z,8.37
2022-11-05T14:09:59.715Z,8.10
2022-11-05T14:12:35.769Z,7.93
2022-11-05T14:15:30.926Z,8.10
2022-11-05T14:18:18.850Z,9.20
2022-11-05T14:20:58.752Z,9.07
2022-11-05T14:23:25.470Z,7.67
2022-11-05T14:25:56.064Z,8.70
2022-11-05T14:28:34.690Z,8.00
2022-11-05T14:31:02.531Z,8.07
2022-11-05T14:33:29.055Z,9.70
2022-11-05T14:36:35.782Z,10.50
2022-11-05T14:39:26.069Z,9.97
2022-11-05T14:42:03.240Z,10.50
2022-11-05T14:44:35.010Z,9.40
2022-11-05T14:47:18.780Z,9.17
2022-11-05T14:49:53.946Z,9.70
2022-11-05T14:52:21.429Z,9.67
2022-11-05T14:54:55.127Z,10.83
2022-11-05T14:57:43.080Z,10.87
2022-11-05T15:00:34.132Z,12.73
2022-11-05T15:03:04.186Z,12.17
2022-11-05T15:05:53.085Z,12.33
2022-11-05T15:08:37.396Z,11.10
2022-11-05T15:11:14.513Z,10.73
2022-11-05T15:14:02.871Z,10.47
2022-11-05T15:16:42.750Z,10.87
2022-11-05T15:19:32.599Z,10.97
2022-11-05T15:22:03.244Z,10.53
2022-11-05T15:24:34.267Z,10.77
2022-11-05T15:27:18.588Z,11.90
2022-11-05T15:29:45.644Z,12.03
2022-11-05T15:32:18.363Z,12.50
2022-11-05T15:34:53.412Z,12.30
2022-11-05T15:37:25.885Z,13.53
2022-11-05T15:39:54.791Z,17.43
2022-11-05T15:42:26.128Z,16.87
2022-11-05T15:44:57.728Z,19.73
2022-11-05T15:47:34.158Z,19.87
2022-11-05T15:50:03.740Z,16.67
2022-11-05T15:52:42.333Z,14.40
2022-11-05T15:55:09.183Z,16.07
2022-11-05T15:57:40.100Z,16.27
2022-11-05T16:00:16.404Z,19.97
2022-11-05T16:02:43.530Z,27.30
2022-11-05T16:05:13.809Z,25.10
2022-11-05T16:07:45.446Z,24.33
2022-11-05T16:10:25.158Z,24.13
2022-11-05T16:12:51.826Z,25.80
2022-11-05T16:15:25.239Z,22.57
2022-11-05T16:17:58.287Z,20.27
2022-11-05T16:20:30.611Z,19.07
2022-11-05T16:23:00.400Z,15.67
2022-11-05T16:25:38.202Z,15.10
2022-11-05T16:28:18.508Z,14.53
2022-11-05T16:30:58.582Z,12.07
2022-11-05T16:33:27.318Z,10.63
2022-11-05T16:35:53.886Z,12.73
2022-11-05T16:38:21.200Z,11.97
2022-11-05T16:40:52.713Z,11.13
2022-11-05T16:43:24.696Z,9.90
2022-11-05T16:45:57.366Z,11.17
2022-11-05T16:48:24.941Z,11.37
2022-11-05T16:50:51.648Z,14.20
2022-11-05T16:53:19.614Z,12.63
2022-11-05T16:55:46.682Z,13.07
2022-11-05T16:58:22.495Z,11.73
2022-11-05T17:00:51.143Z,13.20
2022-11-05T17:03:17.949Z,15.07
2022-11-05T17:05:44.794Z,15.30
2022-11-05T17:08:11.745Z,14.40
2022-11-05T17:10:38.588Z,13.53
2022-11-05T17:13:05.205Z,14.70
2022-11-05T17:15:36.650Z,14.87
2022-11-05T17:18:15.369Z,13.30
2022-11-05T17:20:47.929Z,15.23
2022-11-05T17:23:17.191Z,14.47
2022-11-05T17:25:47.165Z,14.10
2022-11-05T17:28:15.081Z,16.37
2022-11-05T17:30:43.904Z,18.80
2022-11-05T17:33:12.179Z,14.43
2022-11-05T17:35:40.884Z,13.50
2022-11-05T17:38:08.444Z,12.10
2022-11-05T17:40:36.413Z,10.73
2022-11-05T17:43:03.732Z,11.07
2022-11-05T17:45:30.988Z,9.93
2022-11-05T17:47:57.784Z,10.30
2022-11-05T17:50:24.535Z,11.90
2022-11-05T17:52:51.359Z,11.43
2022-11-05T17:55:18.069Z,10.97
2022-11-05T17:57:47.471Z,10.90
2022-11-05T18:00:17.939Z,12.93
2022-11-05T18:02:46.181Z,12.00
2022-11-05T18:05:13.634Z,16.97
2022-11-05T18:07:40.966Z,14.00
2022-11-05T18:10:07.903Z,11.63
2022-11-05T18:12:36.055Z,12.13
2022-11-05T18:15:03.071Z,10.70
2022-11-05T18:17:29.752Z,11.27
2022-11-05T18:19:56.497Z,11.67
2022-11-05T18:22:23.222Z,11.37
2022-11-05T18:24:50.014Z,12.53
2022-11-05T18:27:16.650Z,10.97
2022-11-05T18:29:43.287Z,12.67
2022-11-05T18:32:10.028Z,12.17
2022-11-05T18:34:36.693Z,12.50
2022-11-05T18:37:03.733Z,10.97
2022-11-05T18:39:30.460Z,11.43
2022-11-05T18:41:57.109Z,11.23
2022-11-05T18:44:24.811Z,12.90
2022-11-05T18:46:58.175Z,12.80
2022-11-05T18:49:26.063Z,11.50
2022-11-05T18:51:52.706Z,12.50
2022-11-05T18:54:20.194Z,11.27
2022-11-05T18:56:46.891Z,11.80
2022-11-05T19:02:05.775Z,12.13
2022-11-05T19:04:32.935Z,12.23
2022-11-05T19:07:04.533Z,12.27
2022-11-05T19:09:39.383Z,12.40
2022-11-05T19:12:13.689Z,10.87
2022-11-05T19:14:47.243Z,11.00
2022-11-05T19:17:14.120Z,11.37
2022-11-05T19:19:41.823Z,10.87
2022-11-05T19:22:08.470Z,11.43
2022-11-05T19:24:35.062Z,11.53
2022-11-05T19:27:02.006Z,11.90
2022-11-05T19:29:28.658Z,10.40
2022-11-05T19:31:55.344Z,11.53
2022-11-05T19:34:21.919Z,10.73
2022-11-05T19:36:48.677Z,11.67
2022-11-05T19:39:15.337Z,13.03
2022-11-05T19:41:42.596Z,12.37
2022-11-05T19:44:09.252Z,12.70
2022-11-05T19:46:35.919Z,11.20
2022-11-05T19:49:03.267Z,12.73
2022-11-05T19:51:32.608Z,14.33
2022-11-05T19:54:01.281Z,12.30
2022-11-05T19:56:30.554Z,15.50
2022-11-05T19:58:58.412Z,13.03
2022-11-05T20:01:27.075Z,12.00
2022-11-05T20:03:56.112Z,10.77
2022-11-05T20:06:28.724Z,10.70
2022-11-05T20:11:48.786Z,10.20
2022-11-05T20:14:16.175Z,9.97
2022-11-05T20:16:43.193Z,10.03
2022-11-05T20:19:13.190Z,10.80
2022-11-05T20:21:40.448Z,9.83
2022-11-05T20:24:08.297Z,11.20
2022-11-05T20:26:35.064Z,9.93
2022-11-05T20:29:01.736Z,10.13
2022-11-05T20:31:28.711Z,10.83
2022-11-05T20:33:55.391Z,9.97
2022-11-05T20:36:24.859Z,10.73
2022-11-05T20:38:55.344Z,10.43
2022-11-05T20:41:22.830Z,10.70
2022-11-05T20:43:49.726Z,13.20
2022-11-05T20:46:19.215Z,13.37
2022-11-05T20:48:45.876Z,11.97
2022-11-05T20:51:24.234Z,12.77
2022-11-05T20:53:55.880Z,10.23
2022-11-05T20:56:25.337Z,10.57
2022-11-05T20:58:52.727Z,10.43
2022-11-05T21:01:19.837Z,10.03
2022-11-05T21:03:47.824Z,11.40
2022-11-05T21:06:15.184Z,12.17
2022-11-05T21:08:42.082Z,10.47
2022-11-05T21:11:10.120Z,11.00
2022-11-05T21:13:36.944Z,10.80
2022-11-05T21:16:07.056Z,10.60
2022-11-05T21:18:35.465Z,11.30
2022-11-05T21:21:18.908Z,11.30
2022-11-05T21:23:45.679Z,10.27
2022-11-05T21:26:14.509Z,11.57
2022-11-05T21:28:42.068Z,10.10
2022-11-05T21:31:09.615Z,11.30
2022-11-05T21:33:36.364Z,11.50
2022-11-05T21:36:08.582Z,10.07
2022-11-05T21:38:35.465Z,11.10
2022-11-05T21:41:03.248Z,11.50
2022-11-05T21:43:29.836Z,12.17
2022-11-05T21:46:01.866Z,11.03
2022-11-05T21:48:28.693Z,12.13
2022-11-05T21:51:14.007Z,11.67
2022-11-05T21:53:59.039Z,12.53
2022-11-05T21:56:45.490Z,13.63
2022-11-05T21:59:33.549Z,12.27
2022-11-05T22:02:03.600Z,12.90
2022-11-05T22:04:32.314Z,12.13
2022-11-05T22:06:59.606Z,12.90
2022-11-05T22:09:26.786Z,11.33
2022-11-05T22:11:54.102Z,12.37
2022-11-05T22:14:21.477Z,12.93
2022-11-05T22:16:48.581Z,12.37
2022-11-05T22:19:15.197Z,13.10
2022-11-05T22:21:42.100Z,12.20
2022-11-05T22:24:09.337Z,11.50
2022-11-05T22:26:36.260Z,11.80
2022-11-05T22:29:02.901Z,12.70
2022-11-05T22:31:35.663Z,11.13
2022-11-05T22:34:04.389Z,11.13
2022-11-05T22:36:31.146Z,11.47
2022-11-05T22:38:57.757Z,12.03
2022-11-05T22:41:24.358Z,12.37
2022-11-05T22:43:51.207Z,12.90
2022-11-05T22:46:21.020Z,12.17
2022-11-05T22:48:48.224Z,12.53
2022-11-05T22:51:18.024Z,11.07
2022-11-05T22:53:44.703Z,12.30
2022-11-05T22:56:14.203Z,12.30
2022-11-05T22:58:41.418Z,13.00
2022-11-05T23:01:11.933Z,11.93
2022-11-05T23:03:40.558Z,11.93
2022-11-05T23:06:31.594Z,11.70
2022-11-05T23:09:17.727Z,12.60
2022-11-05T23:11:48.568Z,12.37
2022-11-05T23:14:15.728Z,11.87
2022-11-05T23:17:02.094Z,11.20
2022-11-05T23:19:47.397Z,10.80
2022-11-05T23:22:36.987Z,11.27
2022-11-05T23:25:05.258Z,12.63
2022-11-05T23:27:37.070Z,11.87
2022-11-05T23:30:07.582Z,10.90
2022-11-05T23:32:34.506Z,12.40
2022-11-05T23:35:01.146Z,12.23
2022-11-05T23:37:49.081Z,12.10
2022-11-05T23:40:24.458Z,11.60
2022-11-05T23:43:09.882Z,11.83
2022-11-05T23:45:59.941Z,11.60
2022-11-05T23:48:33.811Z,9.83
2022-11-05T23:51:03.511Z,11.43
2022-11-05T23:53:32.659Z,10.10
2022-11-05T23:56:10.874Z,10.67
2022-11-05T23:58:38.859Z,11.23
